sensor_id;sensor_type;location;lat;lon;timestamp;P1;durP1;ratioP1;P2;durP2;ratioP2
5961;SDS011;3007;50.770;0.250;2023-12-14T00:01:37;4.17;;;1.80;;
5961;SDS011;3007;50.770;0.250;2023-12-14T00:04:05;3.43;;;1.83;;
5961;SDS011;3007;50.770;0.250;2023-12-14T00:06:31;5.83;;;1.97;;
5961;SDS011;3007;50.770;0.250;2023-12-14T00:09:00;3.93;;;1.43;;
5961;SDS011;3007;50.770;0.250;2023-12-14T00:11:26;5.13;;;1.50;;
5961;SDS011;3007;50.770;0.250;2023-12-14T00:13:53;7.27;;;1.60;;
5961;SDS011;3007;50.770;0.250;2023-12-14T00:16:20;4.27;;;1.40;;
5961;SDS011;3007;50.770;0.250;2023-12-14T00:18:47;5.07;;;1.60;;
5961;SDS011;3007;50.770;0.250;2023-12-14T00:21:14;4.23;;;1.47;;
5961;SDS011;3007;50.770;0.250;2023-12-14T00:23:41;3.70;;;1.57;;
5961;SDS011;3007;50.770;0.250;2023-12-14T00:26:09;3.93;;;1.90;;
5961;SDS011;3007;50.770;0.250;2023-12-14T00:28:36;3.93;;;1.30;;
5961;SDS011;3007;50.770;0.250;2023-12-14T00:31:03;3.77;;;1.37;;
5961;SDS011;3007;50.770;0.250;2023-12-14T00:33:30;4.83;;;1.47;;
5961;SDS011;3007;50.770;0.250;2023-12-14T00:35:57;4.30;;;1.70;;
5961;SDS011;3007;50.770;0.250;2023-12-14T00:38:24;5.20;;;1.87;;
5961;SDS011;3007;50.770;0.250;2023-12-14T00:40:51;3.80;;;1.80;;
5961;SDS011;3007;50.770;0.250;2023-12-14T00:43:19;4.87;;;1.80;;
5961;SDS011;3007;50.770;0.250;2023-12-14T00:45:46;5.30;;;1.60;;
5961;SDS011;3007;50.770;0.250;2023-12-14T00:48:12;6.60;;;1.87;;
5961;SDS011;3007;50.770;0.250;2023-12-14T00:50:39;6.17;;;2.17;;
5961;SDS011;3007;50.770;0.250;2023-12-14T00:53:06;6.60;;;2.00;;
5961;SDS011;3007;50.770;0.250;2023-12-14T00:55:33;5.43;;;1.80;;
5961;SDS011;3007;50.770;0.250;2023-12-14T00:58:00;5.77;;;2.20;;
5961;SDS011;3007;50.770;0.250;2023-12-14T01:00:29;7.67;;;2.60;;
5961;SDS011;3007;50.770;0.250;2023-12-14T01:02:56;6.40;;;2.30;;
5961;SDS011;3007;50.770;0.250;2023-12-14T01:05:23;6.63;;;2.30;;
5961;SDS011;3007;50.770;0.250;2023-12-14T01:07:50;4.60;;;2.73;;
5961;SDS011;3007;50.770;0.250;2023-12-14T01:10:17;6.37;;;3.23;;
5961;SDS011;3007;50.770;0.250;2023-12-14T01:12:43;4.60;;;2.70;;
5961;SDS011;3007;50.770;0.250;2023-12-14T01:15:10;6.17;;;3.00;;
5961;SDS011;3007;50.770;0.250;2023-12-14T01:17:39;6.67;;;2.90;;
5961;SDS011;3007;50.770;0.250;2023-12-14T01:20:06;6.57;;;3.10;;
5961;SDS011;3007;50.770;0.250;2023-12-14T01:22:33;7.53;;;3.30;;
5961;SDS011;3007;50.770;0.250;2023-12-14T01:25:00;7.30;;;2.90;;
5961;SDS011;3007;50.770;0.250;2023-12-14T01:27:27;7.97;;;2.93;;
5961;SDS011;3007;50.770;0.250;2023-12-14T01:29:54;7.07;;;3.03;;
5961;SDS011;3007;50.770;0.250;2023-12-14T01:32:21;4.90;;;2.80;;
5961;SDS011;3007;50.770;0.250;2023-12-14T01:34:49;10.10;;;2.73;;
5961;SDS011;3007;50.770;0.250;2023-12-14T01:37:16;5.30;;;2.43;;
5961;SDS011;3007;50.770;0.250;2023-12-14T01:39:43;4.63;;;2.67;;
5961;SDS011;3007;50.770;0.250;2023-12-14T01:42:10;8.33;;;3.43;;
5961;SDS011;3007;50.770;0.250;2023-12-14T01:44:36;8.60;;;3.33;;
5961;SDS011;3007;50.770;0.250;2023-12-14T01:47:03;8.73;;;2.57;;
5961;SDS011;3007;50.770;0.250;2023-12-14T01:49:30;8.63;;;3.00;;
5961;SDS011;3007;50.770;0.250;2023-12-14T01:51:58;9.30;;;2.90;;
5961;SDS011;3007;50.770;0.250;2023-12-14T01:54:25;5.70;;;3.20;;
5961;SDS011;3007;50.770;0.250;2023-12-14T01:56:52;6.30;;;3.10;;
5961;SDS011;3007;50.770;0.250;2023-12-14T01:59:20;9.13;;;3.13;;
5961;SDS011;3007;50.770;0.250;2023-12-14T02:01:47;7.90;;;3.40;;
5961;SDS011;3007;50.770;0.250;2023-12-14T02:04:21;6.60;;;3.80;;
5961;SDS011;3007;50.770;0.250;2023-12-14T02:06:49;13.33;;;4.33;;
5961;SDS011;3007;50.770;0.250;2023-12-14T02:09:17;11.70;;;4.70;;
5961;SDS011;3007;50.770;0.250;2023-12-14T02:11:44;6.20;;;3.90;;
5961;SDS011;3007;50.770;0.250;2023-12-14T02:14:11;12.37;;;4.67;;
5961;SDS011;3007;50.770;0.250;2023-12-14T02:16:38;11.63;;;4.40;;
5961;SDS011;3007;50.770;0.250;2023-12-14T02:19:05;11.93;;;4.00;;
5961;SDS011;3007;50.770;0.250;2023-12-14T02:21:32;9.77;;;3.60;;
5961;SDS011;3007;50.770;0.250;2023-12-14T02:24:00;10.17;;;3.50;;
5961;SDS011;3007;50.770;0.250;2023-12-14T02:26:27;10.53;;;3.87;;
5961;SDS011;3007;50.770;0.250;2023-12-14T02:28:54;9.70;;;4.00;;
5961;SDS011;3007;50.770;0.250;2023-12-14T02:31:21;7.77;;;3.77;;
5961;SDS011;3007;50.770;0.250;2023-12-14T02:33:49;8.37;;;4.37;;
5961;SDS011;3007;50.770;0.250;2023-12-14T02:36:15;10.10;;;4.23;;
5961;SDS011;3007;50.770;0.250;2023-12-14T02:38:42;11.23;;;4.67;;
5961;SDS011;3007;50.770;0.250;2023-12-14T02:41:11;8.87;;;4.27;;
5961;SDS011;3007;50.770;0.250;2023-12-14T02:43:38;10.77;;;4.23;;
5961;SDS011;3007;50.770;0.250;2023-12-14T02:46:05;8.57;;;3.77;;
5961;SDS011;3007;50.770;0.250;2023-12-14T02:48:32;9.97;;;3.80;;
5961;SDS011;3007;50.770;0.250;2023-12-14T02:50:59;7.27;;;3.13;;
5961;SDS011;3007;50.770;0.250;2023-12-14T02:53:26;6.50;;;3.17;;
5961;SDS011;3007;50.770;0.250;2023-12-14T02:55:53;8.03;;;3.60;;
5961;SDS011;3007;50.770;0.250;2023-12-14T02:58:21;9.77;;;3.23;;
5961;SDS011;3007;50.770;0.250;2023-12-14T03:00:48;11.47;;;3.63;;
5961;SDS011;3007;50.770;0.250;2023-12-14T03:03:15;6.87;;;3.10;;
5961;SDS011;3007;50.770;0.250;2023-12-14T03:05:42;13.63;;;3.50;;
5961;SDS011;3007;50.770;0.250;2023-12-14T03:08:09;9.63;;;4.17;;
5961;SDS011;3007;50.770;0.250;2023-12-14T03:10:36;7.40;;;4.00;;
5961;SDS011;3007;50.770;0.250;2023-12-14T03:13:02;9.10;;;4.00;;
5961;SDS011;3007;50.770;0.250;2023-12-14T03:15:31;10.43;;;3.67;;
5961;SDS011;3007;50.770;0.250;2023-12-14T03:17:58;8.70;;;3.90;;
5961;SDS011;3007;50.770;0.250;2023-12-14T03:20:25;7.23;;;4.10;;
5961;SDS011;3007;50.770;0.250;2023-12-14T03:22:52;8.10;;;4.23;;
5961;SDS011;3007;50.770;0.250;2023-12-14T03:25:18;11.13;;;4.53;;
5961;SDS011;3007;50.770;0.250;2023-12-14T03:27:45;13.07;;;4.70;;
5961;SDS011;3007;50.770;0.250;2023-12-14T03:30:12;11.07;;;4.27;;
5961;SDS011;3007;50.770;0.250;2023-12-14T03:32:40;13.20;;;4.93;;
5961;SDS011;3007;50.770;0.250;2023-12-14T03:35:07;9.63;;;4.40;;
5961;SDS011;3007;50.770;0.250;2023-12-14T03:37:34;9.87;;;4.50;;
5961;SDS011;3007;50.770;0.250;2023-12-14T03:40:01;12.13;;;3.97;;
5961;SDS011;3007;50.770;0.250;2023-12-14T03:42:29;6.97;;;4.43;;
5961;SDS011;3007;50.770;0.250;2023-12-14T03:44:55;8.40;;;4.53;;
5961;SDS011;3007;50.770;0.250;2023-12-14T03:47:22;8.97;;;4.67;;
5961;SDS011;3007;50.770;0.250;2023-12-14T03:49:51;10.17;;;5.53;;
5961;SDS011;3007;50.770;0.250;2023-12-14T03:52:17;9.77;;;4.97;;
5961;SDS011;3007;50.770;0.250;2023-12-14T03:54:44;11.13;;;5.20;;
5961;SDS011;3007;50.770;0.250;2023-12-14T03:57:11;13.77;;;6.33;;
5961;SDS011;3007;50.770;0.250;2023-12-14T03:59:38;10.67;;;5.47;;
5961;SDS011;3007;50.770;0.250;2023-12-14T04:02:06;11.57;;;5.77;;
5961;SDS011;3007;50.770;0.250;2023-12-14T04:04:33;12.30;;;5.57;;
5961;SDS011;3007;50.770;0.250;2023-12-14T04:07:01;9.57;;;5.60;;
5961;SDS011;3007;50.770;0.250;2023-12-14T04:09:28;14.47;;;6.00;;
5961;SDS011;3007;50.770;0.250;2023-12-14T04:11:55;9.33;;;4.90;;
5961;SDS011;3007;50.770;0.250;2023-12-14T04:14:22;12.03;;;5.77;;
5961;SDS011;3007;50.770;0.250;2023-12-14T04:16:49;12.70;;;5.60;;
5961;SDS011;3007;50.770;0.250;2023-12-14T04:19:15;11.87;;;4.60;;
5961;SDS011;3007;50.770;0.250;2023-12-14T04:21:42;13.50;;;5.70;;
5961;SDS011;3007;50.770;0.250;2023-12-14T04:24:11;11.53;;;5.13;;
5961;SDS011;3007;50.770;0.250;2023-12-14T04:26:38;12.47;;;5.30;;
5961;SDS011;3007;50.770;0.250;2023-12-14T04:29:05;10.10;;;4.30;;
5961;SDS011;3007;50.770;0.250;2023-12-14T04:31:33;14.10;;;5.23;;
5961;SDS011;3007;50.770;0.250;2023-12-14T04:34:00;10.37;;;4.53;;
5961;SDS011;3007;50.770;0.250;2023-12-14T04:36:27;8.70;;;4.73;;
5961;SDS011;3007;50.770;0.250;2023-12-14T04:38:54;8.87;;;5.13;;
5961;SDS011;3007;50.770;0.250;2023-12-14T04:41:22;11.53;;;4.53;;
5961;SDS011;3007;50.770;0.250;2023-12-14T04:43:49;8.77;;;4.80;;
5961;SDS011;3007;50.770;0.250;2023-12-14T04:46:16;12.40;;;4.80;;
5961;SDS011;3007;50.770;0.250;2023-12-14T04:48:43;9.77;;;4.30;;
5961;SDS011;3007;50.770;0.250;2023-12-14T04:51:11;10.83;;;4.70;;
5961;SDS011;3007;50.770;0.250;2023-12-14T04:53:38;14.77;;;5.23;;
5961;SDS011;3007;50.770;0.250;2023-12-14T04:56:09;8.80;;;3.83;;
5961;SDS011;3007;50.770;0.250;2023-12-14T04:58:38;9.10;;;4.47;;
5961;SDS011;3007;50.770;0.250;2023-12-14T05:01:05;12.20;;;5.00;;
5961;SDS011;3007;50.770;0.250;2023-12-14T05:03:32;10.63;;;4.70;;
5961;SDS011;3007;50.770;0.250;2023-12-14T05:05:59;13.40;;;5.07;;
5961;SDS011;3007;50.770;0.250;2023-12-14T05:08:26;13.77;;;4.60;;
5961;SDS011;3007;50.770;0.250;2023-12-14T05:10:53;8.20;;;4.80;;
5961;SDS011;3007;50.770;0.250;2023-12-14T05:13:20;9.70;;;4.23;;
5961;SDS011;3007;50.770;0.250;2023-12-14T05:15:48;7.30;;;3.80;;
5961;SDS011;3007;50.770;0.250;2023-12-14T05:18:15;10.43;;;4.83;;
5961;SDS011;3007;50.770;0.250;2023-12-14T05:20:42;16.57;;;4.80;;
5961;SDS011;3007;50.770;0.250;2023-12-14T05:23:10;13.20;;;5.53;;
5961;SDS011;3007;50.770;0.250;2023-12-14T05:25:37;9.00;;;3.93;;
5961;SDS011;3007;50.770;0.250;2023-12-14T05:28:04;9.30;;;4.63;;
5961;SDS011;3007;50.770;0.250;2023-12-14T05:30:31;8.67;;;3.63;;
5961;SDS011;3007;50.770;0.250;2023-12-14T05:32:59;9.17;;;3.77;;
5961;SDS011;3007;50.770;0.250;2023-12-14T05:35:26;10.40;;;3.93;;
5961;SDS011;3007;50.770;0.250;2023-12-14T05:37:53;10.57;;;3.97;;
5961;SDS011;3007;50.770;0.250;2023-12-14T05:40:20;10.80;;;3.67;;
5961;SDS011;3007;50.770;0.250;2023-12-14T05:42:47;11.50;;;3.47;;
5961;SDS011;3007;50.770;0.250;2023-12-14T05:45:14;10.53;;;3.40;;
5961;SDS011;3007;50.770;0.250;2023-12-14T05:47:41;11.87;;;3.97;;
5961;SDS011;3007;50.770;0.250;2023-12-14T05:50:09;7.97;;;3.20;;
5961;SDS011;3007;50.770;0.250;2023-12-14T05:52:37;9.27;;;3.23;;
5961;SDS011;3007;50.770;0.250;2023-12-14T05:55:07;6.47;;;3.13;;
5961;SDS011;3007;50.770;0.250;2023-12-14T05:57:35;8.73;;;2.90;;
5961;SDS011;3007;50.770;0.250;2023-12-14T06:00:02;6.53;;;3.00;;
5961;SDS011;3007;50.770;0.250;2023-12-14T06:02:33;7.47;;;3.07;;
5961;SDS011;3007;50.770;0.250;2023-12-14T06:05:02;8.20;;;2.63;;
5961;SDS011;3007;50.770;0.250;2023-12-14T06:07:30;6.73;;;3.00;;
5961;SDS011;3007;50.770;0.250;2023-12-14T06:09:57;9.87;;;3.07;;
5961;SDS011;3007;50.770;0.250;2023-12-14T06:12:25;7.53;;;2.43;;
5961;SDS011;3007;50.770;0.250;2023-12-14T06:14:53;5.23;;;2.40;;
5961;SDS011;3007;50.770;0.250;2023-12-14T06:17:19;11.30;;;3.37;;
5961;SDS011;3007;50.770;0.250;2023-12-14T06:19:46;8.90;;;3.03;;
5961;SDS011;3007;50.770;0.250;2023-12-14T06:22:13;9.67;;;2.63;;
5961;SDS011;3007;50.770;0.250;2023-12-14T06:24:41;4.93;;;2.67;;
5961;SDS011;3007;50.770;0.250;2023-12-14T06:27:08;8.00;;;3.00;;
5961;SDS011;3007;50.770;0.250;2023-12-14T06:29:35;7.97;;;2.73;;
5961;SDS011;3007;50.770;0.250;2023-12-14T06:32:02;5.13;;;2.43;;
5961;SDS011;3007;50.770;0.250;2023-12-14T06:34:29;7.60;;;2.40;;
5961;SDS011;3007;50.770;0.250;2023-12-14T06:36:56;9.27;;;2.80;;
5961;SDS011;3007;50.770;0.250;2023-12-14T06:39:25;6.43;;;2.37;;
5961;SDS011;3007;50.770;0.250;2023-12-14T06:41:53;5.63;;;2.53;;
5961;SDS011;3007;50.770;0.250;2023-12-14T06:44:20;6.87;;;2.50;;
5961;SDS011;3007;50.770;0.250;2023-12-14T06:46:47;4.93;;;2.10;;
5961;SDS011;3007;50.770;0.250;2023-12-14T06:49:13;5.90;;;2.17;;
5961;SDS011;3007;50.770;0.250;2023-12-14T06:51:41;6.20;;;2.97;;
5961;SDS011;3007;50.770;0.250;2023-12-14T06:54:08;5.83;;;2.23;;
5961;SDS011;3007;50.770;0.250;2023-12-14T06:56:36;10.57;;;2.27;;
5961;SDS011;3007;50.770;0.250;2023-12-14T06:59:04;9.53;;;2.40;;
5961;SDS011;3007;50.770;0.250;2023-12-14T07:01:31;8.50;;;2.27;;
5961;SDS011;3007;50.770;0.250;2023-12-14T07:03:57;7.40;;;2.23;;
5961;SDS011;3007;50.770;0.250;2023-12-14T07:06:24;7.80;;;2.37;;
5961;SDS011;3007;50.770;0.250;2023-12-14T07:08:51;5.07;;;2.13;;
5961;SDS011;3007;50.770;0.250;2023-12-14T07:11:18;4.50;;;2.20;;
5961;SDS011;3007;50.770;0.250;2023-12-14T07:13:45;5.70;;;1.80;;
5961;SDS011;3007;50.770;0.250;2023-12-14T07:16:13;2.27;;;1.63;;
5961;SDS011;3007;50.770;0.250;2023-12-14T07:18:42;6.87;;;2.03;;
5961;SDS011;3007;50.770;0.250;2023-12-14T07:21:09;6.60;;;2.10;;
5961;SDS011;3007;50.770;0.250;2023-12-14T07:23:36;7.80;;;2.57;;
5961;SDS011;3007;50.770;0.250;2023-12-14T07:26:03;7.13;;;1.70;;
5961;SDS011;3007;50.770;0.250;2023-12-14T07:28:30;6.60;;;1.93;;
5961;SDS011;3007;50.770;0.250;2023-12-14T07:30:57;5.00;;;1.47;;
5961;SDS011;3007;50.770;0.250;2023-12-14T07:33:26;4.70;;;1.90;;
5961;SDS011;3007;50.770;0.250;2023-12-14T07:35:53;3.33;;;1.87;;
5961;SDS011;3007;50.770;0.250;2023-12-14T07:38:19;3.23;;;1.63;;
5961;SDS011;3007;50.770;0.250;2023-12-14T07:40:46;2.30;;;1.67;;
5961;SDS011;3007;50.770;0.250;2023-12-14T07:43:15;5.37;;;1.67;;
5961;SDS011;3007;50.770;0.250;2023-12-14T07:45:42;5.00;;;1.60;;
5961;SDS011;3007;50.770;0.250;2023-12-14T07:48:08;3.83;;;1.60;;
5961;SDS011;3007;50.770;0.250;2023-12-14T07:50:37;5.13;;;1.60;;
5961;SDS011;3007;50.770;0.250;2023-12-14T07:53:03;5.87;;;1.67;;
5961;SDS011;3007;50.770;0.250;2023-12-14T07:55:30;4.43;;;1.70;;
5961;SDS011;3007;50.770;0.250;2023-12-14T07:57:57;3.73;;;1.33;;
5961;SDS011;3007;50.770;0.250;2023-12-14T08:00:24;5.63;;;1.93;;
5961;SDS011;3007;50.770;0.250;2023-12-14T08:02:51;3.77;;;1.43;;
5961;SDS011;3007;50.770;0.250;2023-12-14T08:05:18;4.03;;;1.63;;
5961;SDS011;3007;50.770;0.250;2023-12-14T08:07:46;2.07;;;1.37;;
5961;SDS011;3007;50.770;0.250;2023-12-14T08:10:17;4.13;;;1.67;;
5961;SDS011;3007;50.770;0.250;2023-12-14T08:12:44;5.33;;;1.63;;
5961;SDS011;3007;50.770;0.250;2023-12-14T08:15:12;8.60;;;1.87;;
5961;SDS011;3007;50.770;0.250;2023-12-14T08:17:39;2.40;;;1.20;;
5961;SDS011;3007;50.770;0.250;2023-12-14T08:20:06;3.57;;;1.60;;
5961;SDS011;3007;50.770;0.250;2023-12-14T08:22:36;3.23;;;1.40;;
5961;SDS011;3007;50.770;0.250;2023-12-14T08:25:10;7.73;;;3.53;;
5961;SDS011;3007;50.770;0.250;2023-12-14T08:27:38;2.30;;;1.30;;
5961;SDS011;3007;50.770;0.250;2023-12-14T08:30:05;4.13;;;1.20;;
5961;SDS011;3007;50.770;0.250;2023-12-14T08:32:33;4.37;;;1.50;;
5961;SDS011;3007;50.770;0.250;2023-12-14T08:35:00;2.20;;;1.13;;
5961;SDS011;3007;50.770;0.250;2023-12-14T08:37:27;4.87;;;1.53;;
5961;SDS011;3007;50.770;0.250;2023-12-14T08:39:54;6.37;;;1.27;;
5961;SDS011;3007;50.770;0.250;2023-12-14T08:42:22;6.83;;;1.50;;
5961;SDS011;3007;50.770;0.250;2023-12-14T08:44:49;3.67;;;1.30;;
5961;SDS011;3007;50.770;0.250;2023-12-14T08:47:16;4.57;;;1.23;;
5961;SDS011;3007;50.770;0.250;2023-12-14T08:49:43;2.97;;;1.40;;
5961;SDS011;3007;50.770;0.250;2023-12-14T08:52:10;2.73;;;1.30;;
5961;SDS011;3007;50.770;0.250;2023-12-14T08:54:36;2.97;;;1.10;;
5961;SDS011;3007;50.770;0.250;2023-12-14T08:57:03;3.20;;;1.10;;
5961;SDS011;3007;50.770;0.250;2023-12-14T08:59:32;2.70;;;1.23;;
5961;SDS011;3007;50.770;0.250;2023-12-14T09:01:58;2.17;;;1.00;;
5961;SDS011;3007;50.770;0.250;2023-12-14T09:04:25;4.97;;;1.23;;
5961;SDS011;3007;50.770;0.250;2023-12-14T09:06:52;3.90;;;1.43;;
5961;SDS011;3007;50.770;0.250;2023-12-14T09:09:19;2.97;;;1.10;;
5961;SDS011;3007;50.770;0.250;2023-12-14T09:11:46;1.77;;;1.00;;
5961;SDS011;3007;50.770;0.250;2023-12-14T09:14:12;2.00;;;0.80;;
5961;SDS011;3007;50.770;0.250;2023-12-14T09:16:41;1.93;;;0.90;;
5961;SDS011;3007;50.770;0.250;2023-12-14T09:19:08;1.80;;;1.00;;
5961;SDS011;3007;50.770;0.250;2023-12-14T09:21:35;4.27;;;1.40;;
5961;SDS011;3007;50.770;0.250;2023-12-14T09:24:01;4.13;;;1.00;;
5961;SDS011;3007;50.770;0.250;2023-12-14T09:26:29;2.17;;;1.10;;
5961;SDS011;3007;50.770;0.250;2023-12-14T09:28:55;4.87;;;1.10;;
5961;SDS011;3007;50.770;0.250;2023-12-14T09:31:23;4.03;;;1.17;;
5961;SDS011;3007;50.770;0.250;2023-12-14T09:33:54;4.57;;;2.30;;
5961;SDS011;3007;50.770;0.250;2023-12-14T09:36:21;2.90;;;1.53;;
5961;SDS011;3007;50.770;0.250;2023-12-14T09:38:49;3.47;;;1.30;;
5961;SDS011;3007;50.770;0.250;2023-12-14T09:41:16;6.23;;;1.40;;
5961;SDS011;3007;50.770;0.250;2023-12-14T09:43:43;4.45;;;1.52;;
5961;SDS011;3007;50.770;0.250;2023-12-14T09:46:11;4.23;;;1.60;;
5961;SDS011;3007;50.770;0.250;2023-12-14T09:48:40;5.33;;;1.30;;
5961;SDS011;3007;50.770;0.250;2023-12-14T09:51:08;5.03;;;1.87;;
5961;SDS011;3007;50.770;0.250;2023-12-14T09:53:36;5.20;;;1.43;;
5961;SDS011;3007;50.770;0.250;2023-12-14T09:56:04;4.47;;;1.30;;
5961;SDS011;3007;50.770;0.250;2023-12-14T09:58:31;4.17;;;1.27;;
5961;SDS011;3007;50.770;0.250;2023-12-14T10:00:58;4.33;;;1.30;;
5961;SDS011;3007;50.770;0.250;2023-12-14T10:03:27;4.63;;;1.80;;
5961;SDS011;3007;50.770;0.250;2023-12-14T10:05:55;4.80;;;1.40;;
5961;SDS011;3007;50.770;0.250;2023-12-14T10:08:25;5.30;;;1.57;;
5961;SDS011;3007;50.770;0.250;2023-12-14T10:10:53;4.77;;;1.40;;
5961;SDS011;3007;50.770;0.250;2023-12-14T10:13:21;2.87;;;1.20;;
5961;SDS011;3007;50.770;0.250;2023-12-14T10:16:01;8.73;;;1.53;;
5961;SDS011;3007;50.770;0.250;2023-12-14T10:18:28;2.50;;;1.20;;
5961;SDS011;3007;50.770;0.250;2023-12-14T10:20:59;6.57;;;1.83;;
5961;SDS011;3007;50.770;0.250;2023-12-14T10:23:27;5.40;;;1.47;;
5961;SDS011;3007;50.770;0.250;2023-12-14T10:25:54;4.33;;;1.30;;
5961;SDS011;3007;50.770;0.250;2023-12-14T10:28:22;6.00;;;1.63;;
5961;SDS011;3007;50.770;0.250;2023-12-14T10:30:49;6.00;;;1.80;;
5961;SDS011;3007;50.770;0.250;2023-12-14T10:33:16;5.43;;;1.63;;
5961;SDS011;3007;50.770;0.250;2023-12-14T10:35:43;7.17;;;1.90;;
5961;SDS011;3007;50.770;0.250;2023-12-14T10:38:12;4.20;;;1.47;;
5961;SDS011;3007;50.770;0.250;2023-12-14T10:40:42;5.80;;;1.70;;
5961;SDS011;3007;50.770;0.250;2023-12-14T10:43:11;2.87;;;1.50;;
5961;SDS011;3007;50.770;0.250;2023-12-14T10:45:39;8.23;;;1.70;;
5961;SDS011;3007;50.770;0.250;2023-12-14T10:48:10;3.37;;;2.07;;
5961;SDS011;3007;50.770;0.250;2023-12-14T10:50:38;7.43;;;2.07;;
5961;SDS011;3007;50.770;0.250;2023-12-14T10:53:08;5.03;;;1.90;;
5961;SDS011;3007;50.770;0.250;2023-12-14T10:55:37;5.00;;;1.70;;
5961;SDS011;3007;50.770;0.250;2023-12-14T10:58:07;7.00;;;2.47;;
5961;SDS011;3007;50.770;0.250;2023-12-14T11:00:35;4.43;;;2.30;;
5961;SDS011;3007;50.770;0.250;2023-12-14T11:03:03;4.57;;;2.30;;
5961;SDS011;3007;50.770;0.250;2023-12-14T11:05:31;6.27;;;3.00;;
5961;SDS011;3007;50.770;0.250;2023-12-14T11:08:00;7.10;;;3.40;;
5961;SDS011;3007;50.770;0.250;2023-12-14T11:10:37;8.73;;;3.20;;
5961;SDS011;3007;50.770;0.250;2023-12-14T11:13:06;9.07;;;5.67;;
5961;SDS011;3007;50.770;0.250;2023-12-14T11:15:39;8.00;;;4.77;;
5961;SDS011;3007;50.770;0.250;2023-12-14T11:18:25;8.77;;;3.83;;
5961;SDS011;3007;50.770;0.250;2023-12-14T11:20:55;5.60;;;4.23;;
5961;SDS011;3007;50.770;0.250;2023-12-14T11:26:09;7.70;;;5.23;;
5961;SDS011;3007;50.770;0.250;2023-12-14T11:28:38;9.90;;;6.20;;
5961;SDS011;3007;50.770;0.250;2023-12-14T11:31:09;8.10;;;4.23;;
5961;SDS011;3007;50.770;0.250;2023-12-14T11:33:37;8.10;;;4.00;;
5961;SDS011;3007;50.770;0.250;2023-12-14T11:36:04;6.23;;;2.90;;
5961;SDS011;3007;50.770;0.250;2023-12-14T11:38:33;5.43;;;2.80;;
5961;SDS011;3007;50.770;0.250;2023-12-14T11:41:01;4.67;;;2.20;;
5961;SDS011;3007;50.770;0.250;2023-12-14T11:43:28;3.47;;;2.00;;
5961;SDS011;3007;50.770;0.250;2023-12-14T11:45:56;7.70;;;2.57;;
5961;SDS011;3007;50.770;0.250;2023-12-14T11:48:23;4.73;;;2.23;;
5961;SDS011;3007;50.770;0.250;2023-12-14T11:50:51;4.07;;;2.37;;
5961;SDS011;3007;50.770;0.250;2023-12-14T11:53:18;4.17;;;2.10;;
5961;SDS011;3007;50.770;0.250;2023-12-14T11:55:45;4.40;;;2.20;;
5961;SDS011;3007;50.770;0.250;2023-12-14T11:58:12;4.67;;;2.30;;
5961;SDS011;3007;50.770;0.250;2023-12-14T12:00:40;2.80;;;2.00;;
5961;SDS011;3007;50.770;0.250;2023-12-14T12:03:09;3.17;;;1.50;;
5961;SDS011;3007;50.770;0.250;2023-12-14T12:05:37;7.23;;;1.83;;
5961;SDS011;3007;50.770;0.250;2023-12-14T12:08:05;4.30;;;1.20;;
5961;SDS011;3007;50.770;0.250;2023-12-14T12:10:31;7.40;;;1.80;;
5961;SDS011;3007;50.770;0.250;2023-12-14T12:12:59;4.90;;;1.83;;
5961;SDS011;3007;50.770;0.250;2023-12-14T12:15:27;7.60;;;2.67;;
5961;SDS011;3007;50.770;0.250;2023-12-14T12:17:54;4.20;;;2.27;;
5961;SDS011;3007;50.770;0.250;2023-12-14T12:20:22;4.80;;;1.87;;
5961;SDS011;3007;50.770;0.250;2023-12-14T12:22:50;4.87;;;1.67;;
5961;SDS011;3007;50.770;0.250;2023-12-14T12:25:17;2.97;;;1.40;;
5961;SDS011;3007;50.770;0.250;2023-12-14T12:27:44;4.37;;;1.77;;
5961;SDS011;3007;50.770;0.250;2023-12-14T12:30:12;6.00;;;1.60;;
5961;SDS011;3007;50.770;0.250;2023-12-14T12:32:40;4.13;;;1.60;;
5961;SDS011;3007;50.770;0.250;2023-12-14T12:35:07;6.53;;;1.67;;
5961;SDS011;3007;50.770;0.250;2023-12-14T12:37:35;3.83;;;1.60;;
5961;SDS011;3007;50.770;0.250;2023-12-14T12:40:03;5.10;;;1.80;;
5961;SDS011;3007;50.770;0.250;2023-12-14T12:42:30;4.67;;;1.60;;
5961;SDS011;3007;50.770;0.250;2023-12-14T12:44:57;4.07;;;2.00;;
5961;SDS011;3007;50.770;0.250;2023-12-14T12:47:24;6.63;;;2.00;;
5961;SDS011;3007;50.770;0.250;2023-12-14T12:49:51;5.73;;;1.93;;
5961;SDS011;3007;50.770;0.250;2023-12-14T12:52:18;4.47;;;1.90;;
5961;SDS011;3007;50.770;0.250;2023-12-14T12:54:46;5.57;;;2.07;;
5961;SDS011;3007;50.770;0.250;2023-12-14T12:57:13;6.30;;;1.83;;
5961;SDS011;3007;50.770;0.250;2023-12-14T12:59:40;5.03;;;1.77;;
5961;SDS011;3007;50.770;0.250;2023-12-14T13:02:06;5.07;;;2.20;;
5961;SDS011;3007;50.770;0.250;2023-12-14T13:04:33;6.67;;;3.00;;
5961;SDS011;3007;50.770;0.250;2023-12-14T13:07:02;5.87;;;2.30;;
5961;SDS011;3007;50.770;0.250;2023-12-14T13:09:29;4.97;;;1.90;;
5961;SDS011;3007;50.770;0.250;2023-12-14T13:11:58;3.23;;;1.57;;
5961;SDS011;3007;50.770;0.250;2023-12-14T13:14:24;4.90;;;1.63;;
5961;SDS011;3007;50.770;0.250;2023-12-14T13:16:51;5.80;;;1.73;;
5961;SDS011;3007;50.770;0.250;2023-12-14T13:19:18;5.37;;;1.90;;
5961;SDS011;3007;50.770;0.250;2023-12-14T13:21:45;4.47;;;1.50;;
5961;SDS011;3007;50.770;0.250;2023-12-14T13:24:12;4.53;;;1.30;;
5961;SDS011;3007;50.770;0.250;2023-12-14T13:26:39;5.17;;;1.60;;
5961;SDS011;3007;50.770;0.250;2023-12-14T13:29:07;7.13;;;1.67;;
5961;SDS011;3007;50.770;0.250;2023-12-14T13:31:35;3.43;;;1.33;;
5961;SDS011;3007;50.770;0.250;2023-12-14T13:34:03;3.93;;;1.20;;
5961;SDS011;3007;50.770;0.250;2023-12-14T13:36:30;5.07;;;1.20;;
5961;SDS011;3007;50.770;0.250;2023-12-14T13:38:57;2.57;;;1.17;;
5961;SDS011;3007;50.770;0.250;2023-12-14T13:41:24;3.80;;;1.10;;
5961;SDS011;3007;50.770;0.250;2023-12-14T13:43:51;2.83;;;1.10;;
5961;SDS011;3007;50.770;0.250;2023-12-14T13:46:19;8.67;;;1.20;;
5961;SDS011;3007;50.770;0.250;2023-12-14T13:48:47;5.47;;;1.73;;
5961;SDS011;3007;50.770;0.250;2023-12-14T13:51:13;3.30;;;1.33;;
5961;SDS011;3007;50.770;0.250;2023-12-14T13:53:40;3.57;;;1.37;;
5961;SDS011;3007;50.770;0.250;2023-12-14T13:56:08;5.63;;;1.63;;
5961;SDS011;3007;50.770;0.250;2023-12-14T13:58:35;5.77;;;1.73;;
5961;SDS011;3007;50.770;0.250;2023-12-14T14:01:03;4.53;;;1.80;;
5961;SDS011;3007;50.770;0.250;2023-12-14T14:03:33;7.70;;;1.90;;
5961;SDS011;3007;50.770;0.250;2023-12-14T14:06:03;5.40;;;1.70;;
5961;SDS011;3007;50.770;0.250;2023-12-14T14:08:30;4.37;;;1.73;;
5961;SDS011;3007;50.770;0.250;2023-12-14T14:10:57;5.10;;;2.20;;
5961;SDS011;3007;50.770;0.250;2023-12-14T14:13:24;2.00;;;1.50;;
5961;SDS011;3007;50.770;0.250;2023-12-14T14:15:51;4.47;;;1.40;;
5961;SDS011;3007;50.770;0.250;2023-12-14T14:18:18;3.23;;;1.03;;
5961;SDS011;3007;50.770;0.250;2023-12-14T14:20:47;1.90;;;1.00;;
5961;SDS011;3007;50.770;0.250;2023-12-14T14:23:14;2.10;;;1.00;;
5961;SDS011;3007;50.770;0.250;2023-12-14T14:25:41;3.30;;;1.30;;
5961;SDS011;3007;50.770;0.250;2023-12-14T14:28:08;2.43;;;1.20;;
5961;SDS011;3007;50.770;0.250;2023-12-14T14:30:35;2.87;;;1.00;;
5961;SDS011;3007;50.770;0.250;2023-12-14T14:33:01;3.03;;;1.30;;
5961;SDS011;3007;50.770;0.250;2023-12-14T14:35:28;1.30;;;1.10;;
5961;SDS011;3007;50.770;0.250;2023-12-14T14:37:59;1.13;;;0.90;;
5961;SDS011;3007;50.770;0.250;2023-12-14T14:40:26;1.67;;;1.23;;
5961;SDS011;3007;50.770;0.250;2023-12-14T14:42:53;5.27;;;1.60;;
5961;SDS011;3007;50.770;0.250;2023-12-14T14:45:20;1.30;;;1.20;;
5961;SDS011;3007;50.770;0.250;2023-12-14T14:47:47;1.83;;;1.23;;
5961;SDS011;3007;50.770;0.250;2023-12-14T14:50:13;2.20;;;1.27;;
5961;SDS011;3007;50.770;0.250;2023-12-14T14:52:40;5.67;;;2.23;;
5961;SDS011;3007;50.770;0.250;2023-12-14T14:55:08;4.60;;;1.93;;
5961;SDS011;3007;50.770;0.250;2023-12-14T14:57:35;3.13;;;1.97;;
5961;SDS011;3007;50.770;0.250;2023-12-14T15:00:04;2.10;;;1.57;;
5961;SDS011;3007;50.770;0.250;2023-12-14T15:02:33;2.33;;;1.43;;
5961;SDS011;3007;50.770;0.250;2023-12-14T15:05:00;2.27;;;1.40;;
5961;SDS011;3007;50.770;0.250;2023-12-14T15:07:27;1.57;;;1.30;;
5961;SDS011;3007;50.770;0.250;2023-12-14T15:09:55;2.20;;;1.20;;
5961;SDS011;3007;50.770;0.250;2023-12-14T15:12:23;1.73;;;1.20;;
5961;SDS011;3007;50.770;0.250;2023-12-14T15:14:50;1.97;;;1.20;;
5961;SDS011;3007;50.770;0.250;2023-12-14T15:17:17;2.63;;;1.10;;